sensor_id;sensor_type;location;lat;lon;timestamp;P1;durP1;ratioP1;P2;durP2;ratioP2
17844;SDS011;9047;53.486;10.218;2023-09-19T00:00:42;4.10;;;2.00;;
17844;SDS011;9047;53.486;10.218;2023-09-19T00:03:12;3.38;;;1.70;;
17844;SDS011;9047;53.486;10.218;2023-09-19T00:05:39;2.78;;;1.73;;
17844;SDS011;9047;53.486;10.218;2023-09-19T00:08:09;3.53;;;1.80;;
17844;SDS011;9047;53.486;10.218;2023-09-19T00:10:40;3.33;;;1.80;;
17844;SDS011;9047;53.486;10.218;2023-09-19T00:13:13;3.88;;;1.63;;
17844;SDS011;9047;53.486;10.218;2023-09-19T00:15:41;4.07;;;1.88;;
17844;SDS011;9047;53.486;10.218;2023-09-19T00:18:15;3.92;;;1.60;;
17844;SDS011;9047;53.486;10.218;2023-09-19T00:20:45;3.00;;;1.70;;
17844;SDS011;9047;53.486;10.218;2023-09-19T00:23:14;4.03;;;1.83;;
17844;SDS011;9047;53.486;10.218;2023-09-19T00:25:42;3.22;;;1.73;;
17844;SDS011;9047;53.486;10.218;2023-09-19T00:28:12;3.35;;;2.05;;
17844;SDS011;9047;53.486;10.218;2023-09-19T00:30:44;3.38;;;1.75;;
17844;SDS011;9047;53.486;10.218;2023-09-19T00:33:15;4.07;;;2.00;;
17844;SDS011;9047;53.486;10.218;2023-09-19T00:35:46;4.47;;;2.10;;
17844;SDS011;9047;53.486;10.218;2023-09-19T00:38:15;4.95;;;2.33;;
17844;SDS011;9047;53.486;10.218;2023-09-19T00:40:43;3.13;;;2.20;;
17844;SDS011;9047;53.486;10.218;2023-09-19T00:43:13;5.63;;;2.22;;
17844;SDS011;9047;53.486;10.218;2023-09-19T00:45:45;4.40;;;2.00;;
17844;SDS011;9047;53.486;10.218;2023-09-19T00:48:16;3.33;;;1.90;;
17844;SDS011;9047;53.486;10.218;2023-09-19T00:50:45;5.43;;;2.30;;
17844;SDS011;9047;53.486;10.218;2023-09-19T00:53:15;4.75;;;2.45;;
17844;SDS011;9047;53.486;10.218;2023-09-19T00:55:45;6.93;;;2.60;;
17844;SDS011;9047;53.486;10.218;2023-09-19T00:58:19;4.32;;;1.98;;
17844;SDS011;9047;53.486;10.218;2023-09-19T01:00:47;4.18;;;2.20;;
17844;SDS011;9047;53.486;10.218;2023-09-19T01:03:16;4.90;;;2.28;;
17844;SDS011;9047;53.486;10.218;2023-09-19T01:05:44;4.90;;;2.55;;
17844;SDS011;9047;53.486;10.218;2023-09-19T01:08:11;5.88;;;2.60;;
17844;SDS011;9047;53.486;10.218;2023-09-19T01:10:44;4.82;;;2.25;;
17844;SDS011;9047;53.486;10.218;2023-09-19T01:13:34;4.72;;;2.60;;
17844;SDS011;9047;53.486;10.218;2023-09-19T01:16:19;5.90;;;2.60;;
17844;SDS011;9047;53.486;10.218;2023-09-19T01:18:59;3.85;;;2.80;;
17844;SDS011;9047;53.486;10.218;2023-09-19T01:21:50;4.25;;;2.50;;
17844;SDS011;9047;53.486;10.218;2023-09-19T01:27:27;7.30;;;2.92;;
17844;SDS011;9047;53.486;10.218;2023-09-19T01:30:14;4.90;;;2.97;;
17844;SDS011;9047;53.486;10.218;2023-09-19T01:32:47;7.30;;;3.17;;
17844;SDS011;9047;53.486;10.218;2023-09-19T01:35:17;6.97;;;3.30;;
17844;SDS011;9047;53.486;10.218;2023-09-19T01:37:44;7.78;;;3.40;;
17844;SDS011;9047;53.486;10.218;2023-09-19T01:40:16;5.60;;;3.40;;
17844;SDS011;9047;53.486;10.218;2023-09-19T01:42:49;5.68;;;3.00;;
17844;SDS011;9047;53.486;10.218;2023-09-19T01:45:29;6.68;;;3.20;;
17844;SDS011;9047;53.486;10.218;2023-09-19T01:48:08;7.65;;;3.35;;
17844;SDS011;9047;53.486;10.218;2023-09-19T01:50:49;7.65;;;3.10;;
17844;SDS011;9047;53.486;10.218;2023-09-19T01:53:22;6.65;;;3.33;;
17844;SDS011;9047;53.486;10.218;2023-09-19T01:55:53;6.70;;;3.08;;
17844;SDS011;9047;53.486;10.218;2023-09-19T01:58:21;7.78;;;3.17;;
17844;SDS011;9047;53.486;10.218;2023-09-19T02:01:05;5.97;;;3.28;;
17844;SDS011;9047;53.486;10.218;2023-09-19T02:03:38;9.07;;;3.28;;
17844;SDS011;9047;53.486;10.218;2023-09-19T02:06:13;5.07;;;3.10;;
17844;SDS011;9047;53.486;10.218;2023-09-19T02:08:44;8.48;;;3.22;;
17844;SDS011;9047;53.486;10.218;2023-09-19T02:11:18;6.80;;;3.05;;
17844;SDS011;9047;53.486;10.218;2023-09-19T02:13:46;8.45;;;3.10;;
17844;SDS011;9047;53.486;10.218;2023-09-19T02:16:15;6.03;;;3.40;;
17844;SDS011;9047;53.486;10.218;2023-09-19T02:18:48;7.03;;;3.20;;
17844;SDS011;9047;53.486;10.218;2023-09-19T02:21:22;6.82;;;3.40;;
17844;SDS011;9047;53.486;10.218;2023-09-19T02:23:50;7.53;;;3.33;;
17844;SDS011;9047;53.486;10.218;2023-09-19T02:26:20;5.43;;;3.03;;
17844;SDS011;9047;53.486;10.218;2023-09-19T02:28:52;6.85;;;3.60;;
17844;SDS011;9047;53.486;10.218;2023-09-19T02:31:22;7.05;;;3.25;;
17844;SDS011;9047;53.486;10.218;2023-09-19T02:33:49;7.43;;;3.05;;
17844;SDS011;9047;53.486;10.218;2023-09-19T02:36:17;7.05;;;3.50;;
17844;SDS011;9047;53.486;10.218;2023-09-19T02:38:46;7.40;;;3.40;;
17844;SDS011;9047;53.486;10.218;2023-09-19T02:41:16;6.65;;;3.40;;
17844;SDS011;9047;53.486;10.218;2023-09-19T02:43:42;12.48;;;3.97;;
17844;SDS011;9047;53.486;10.218;2023-09-19T02:46:10;8.88;;;3.30;;
17844;SDS011;9047;53.486;10.218;2023-09-19T02:48:45;7.63;;;3.75;;
17844;SDS011;9047;53.486;10.218;2023-09-19T02:51:13;10.60;;;3.60;;
17844;SDS011;9047;53.486;10.218;2023-09-19T02:53:47;8.07;;;3.33;;
17844;SDS011;9047;53.486;10.218;2023-09-19T02:56:18;8.88;;;3.42;;
17844;SDS011;9047;53.486;10.218;2023-09-19T02:58:45;7.82;;;2.97;;
17844;SDS011;9047;53.486;10.218;2023-09-19T03:01:13;7.60;;;3.30;;
17844;SDS011;9047;53.486;10.218;2023-09-19T03:03:46;10.20;;;3.65;;
17844;SDS011;9047;53.486;10.218;2023-09-19T03:06:17;6.07;;;3.33;;
17844;SDS011;9047;53.486;10.218;2023-09-19T03:08:45;6.25;;;3.22;;
17844;SDS011;9047;53.486;10.218;2023-09-19T03:11:14;8.65;;;3.53;;
17844;SDS011;9047;53.486;10.218;2023-09-19T03:13:50;7.20;;;3.58;;
17844;SDS011;9047;53.486;10.218;2023-09-19T03:16:21;8.90;;;3.05;;
17844;SDS011;9047;53.486;10.218;2023-09-19T03:18:58;7.72;;;3.42;;
17844;SDS011;9047;53.486;10.218;2023-09-19T03:21:25;8.82;;;3.47;;
17844;SDS011;9047;53.486;10.218;2023-09-19T03:23:56;7.13;;;3.20;;
17844;SDS011;9047;53.486;10.218;2023-09-19T03:26:29;7.53;;;3.00;;
17844;SDS011;9047;53.486;10.218;2023-09-19T03:29:03;6.57;;;3.22;;
17844;SDS011;9047;53.486;10.218;2023-09-19T03:31:37;8.60;;;2.70;;
17844;SDS011;9047;53.486;10.218;2023-09-19T03:34:07;7.40;;;2.80;;
17844;SDS011;9047;53.486;10.218;2023-09-19T03:36:34;6.63;;;2.75;;
17844;SDS011;9047;53.486;10.218;2023-09-19T03:39:03;6.10;;;2.65;;
17844;SDS011;9047;53.486;10.218;2023-09-19T03:41:31;6.28;;;2.70;;
17844;SDS011;9047;53.486;10.218;2023-09-19T03:44:02;9.48;;;2.90;;
17844;SDS011;9047;53.486;10.218;2023-09-19T03:46:30;4.82;;;2.38;;
17844;SDS011;9047;53.486;10.218;2023-09-19T03:48:57;6.78;;;2.50;;
17844;SDS011;9047;53.486;10.218;2023-09-19T03:51:26;7.45;;;2.50;;
17844;SDS011;9047;53.486;10.218;2023-09-19T03:53:57;7.25;;;2.63;;
17844;SDS011;9047;53.486;10.218;2023-09-19T03:56:26;6.00;;;2.38;;
17844;SDS011;9047;53.486;10.218;2023-09-19T03:58:53;9.13;;;2.70;;
17844;SDS011;9047;53.486;10.218;2023-09-19T04:01:24;7.80;;;2.35;;
17844;SDS011;9047;53.486;10.218;2023-09-19T04:03:54;4.50;;;2.28;;
17844;SDS011;9047;53.486;10.218;2023-09-19T04:06:23;7.38;;;2.05;;
17844;SDS011;9047;53.486;10.218;2023-09-19T04:08:59;5.68;;;1.90;;
17844;SDS011;9047;53.486;10.218;2023-09-19T04:11:26;5.43;;;1.92;;
17844;SDS011;9047;53.486;10.218;2023-09-19T04:13:53;5.18;;;1.60;;
17844;SDS011;9047;53.486;10.218;2023-09-19T04:16:21;6.68;;;2.22;;
17844;SDS011;9047;53.486;10.218;2023-09-19T04:18:48;4.40;;;1.42;;
17844;SDS011;9047;53.486;10.218;2023-09-19T04:21:19;5.00;;;1.55;;
17844;SDS011;9047;53.486;10.218;2023-09-19T04:23:52;4.93;;;1.73;;
17844;SDS011;9047;53.486;10.218;2023-09-19T04:26:21;7.00;;;1.42;;
17844;SDS011;9047;53.486;10.218;2023-09-19T04:28:49;4.53;;;1.35;;
17844;SDS011;9047;53.486;10.218;2023-09-19T04:31:23;5.50;;;1.35;;
17844;SDS011;9047;53.486;10.218;2023-09-19T04:33:55;5.55;;;1.55;;
17844;SDS011;9047;53.486;10.218;2023-09-19T04:36:30;5.80;;;1.35;;
17844;SDS011;9047;53.486;10.218;2023-09-19T04:38:57;4.95;;;1.55;;
17844;SDS011;9047;53.486;10.218;2023-09-19T04:41:26;8.10;;;1.77;;
17844;SDS011;9047;53.486;10.218;2023-09-19T04:43:53;4.68;;;1.60;;
17844;SDS011;9047;53.486;10.218;2023-09-19T04:46:24;6.75;;;1.80;;
17844;SDS011;9047;53.486;10.218;2023-09-19T04:48:53;3.85;;;1.70;;
17844;SDS011;9047;53.486;10.218;2023-09-19T04:51:27;5.95;;;1.80;;
17844;SDS011;9047;53.486;10.218;2023-09-19T04:54:01;5.38;;;1.67;;
17844;SDS011;9047;53.486;10.218;2023-09-19T04:56:34;4.75;;;1.60;;
17844;SDS011;9047;53.486;10.218;2023-09-19T04:59:07;4.70;;;1.70;;
17844;SDS011;9047;53.486;10.218;2023-09-19T05:01:41;9.82;;;2.00;;
17844;SDS011;9047;53.486;10.218;2023-09-19T05:04:10;7.82;;;1.60;;
17844;SDS011;9047;53.486;10.218;2023-09-19T05:06:38;6.05;;;1.65;;
17844;SDS011;9047;53.486;10.218;2023-09-19T05:09:11;8.55;;;1.55;;
17844;SDS011;9047;53.486;10.218;2023-09-19T05:11:44;7.30;;;1.80;;
17844;SDS011;9047;53.486;10.218;2023-09-19T05:14:11;5.63;;;1.83;;
17844;SDS011;9047;53.486;10.218;2023-09-19T05:19:50;7.43;;;2.10;;
17844;SDS011;9047;53.486;10.218;2023-09-19T05:22:22;11.90;;;1.92;;
17844;SDS011;9047;53.486;10.218;2023-09-19T05:24:50;7.05;;;2.08;;
17844;SDS011;9047;53.486;10.218;2023-09-19T05:27:32;9.50;;;2.10;;
17844;SDS011;9047;53.486;10.218;2023-09-19T05:30:10;9.25;;;2.03;;
17844;SDS011;9047;53.486;10.218;2023-09-19T05:32:42;5.85;;;1.98;;
17844;SDS011;9047;53.486;10.218;2023-09-19T05:35:10;5.32;;;1.48;;
17844;SDS011;9047;53.486;10.218;2023-09-19T05:37:39;5.05;;;1.48;;
17844;SDS011;9047;53.486;10.218;2023-09-19T05:40:12;7.63;;;1.85;;
17844;SDS011;9047;53.486;10.218;2023-09-19T05:42:44;6.68;;;1.52;;
17844;SDS011;9047;53.486;10.218;2023-09-19T05:45:11;8.52;;;1.90;;
17844;SDS011;9047;53.486;10.218;2023-09-19T05:47:52;7.88;;;1.70;;
17844;SDS011;9047;53.486;10.218;2023-09-19T05:50:21;4.65;;;1.40;;
17844;SDS011;9047;53.486;10.218;2023-09-19T05:52:53;5.35;;;1.77;;
17844;SDS011;9047;53.486;10.218;2023-09-19T05:55:22;6.50;;;1.50;;
17844;SDS011;9047;53.486;10.218;2023-09-19T05:58:04;7.78;;;2.13;;
17844;SDS011;9047;53.486;10.218;2023-09-19T06:00:41;4.65;;;1.70;;
17844;SDS011;9047;53.486;10.218;2023-09-19T06:03:10;9.00;;;2.20;;
17844;SDS011;9047;53.486;10.218;2023-09-19T06:05:40;9.57;;;1.75;;
17844;SDS011;9047;53.486;10.218;2023-09-19T06:08:07;5.47;;;1.73;;
17844;SDS011;9047;53.486;10.218;2023-09-19T06:10:34;5.60;;;1.80;;
17844;SDS011;9047;53.486;10.218;2023-09-19T06:13:09;6.90;;;1.98;;
17844;SDS011;9047;53.486;10.218;2023-09-19T06:15:37;6.45;;;1.65;;
17844;SDS011;9047;53.486;10.218;2023-09-19T06:18:09;7.70;;;2.08;;
17844;SDS011;9047;53.486;10.218;2023-09-19T06:20:40;7.95;;;2.05;;
17844;SDS011;9047;53.486;10.218;2023-09-19T06:23:09;8.80;;;2.30;;
17844;SDS011;9047;53.486;10.218;2023-09-19T06:25:39;5.13;;;1.60;;
17844;SDS011;9047;53.486;10.218;2023-09-19T06:28:11;6.53;;;2.05;;
17844;SDS011;9047;53.486;10.218;2023-09-19T06:30:38;7.53;;;1.80;;
17844;SDS011;9047;53.486;10.218;2023-09-19T06:33:07;12.07;;;2.10;;
17844;SDS011;9047;53.486;10.218;2023-09-19T06:35:37;5.10;;;1.73;;
17844;SDS011;9047;53.486;10.218;2023-09-19T06:38:07;7.43;;;1.75;;
17844;SDS011;9047;53.486;10.218;2023-09-19T06:40:38;6.60;;;1.88;;
17844;SDS011;9047;53.486;10.218;2023-09-19T06:43:14;7.95;;;1.83;;
17844;SDS011;9047;53.486;10.218;2023-09-19T06:45:41;9.10;;;2.05;;
17844;SDS011;9047;53.486;10.218;2023-09-19T06:48:08;7.50;;;1.88;;
17844;SDS011;9047;53.486;10.218;2023-09-19T06:50:37;9.30;;;1.90;;
17844;SDS011;9047;53.486;10.218;2023-09-19T06:53:06;6.10;;;1.83;;
17844;SDS011;9047;53.486;10.218;2023-09-19T06:55:35;7.70;;;1.90;;
17844;SDS011;9047;53.486;10.218;2023-09-19T06:58:03;6.70;;;2.25;;
17844;SDS011;9047;53.486;10.218;2023-09-19T07:00:34;9.43;;;2.10;;
17844;SDS011;9047;53.486;10.218;2023-09-19T07:03:03;8.13;;;1.92;;
17844;SDS011;9047;53.486;10.218;2023-09-19T07:05:36;7.05;;;1.90;;
17844;SDS011;9047;53.486;10.218;2023-09-19T07:08:14;5.90;;;1.83;;
17844;SDS011;9047;53.486;10.218;2023-09-19T07:10:45;6.05;;;2.10;;
17844;SDS011;9047;53.486;10.218;2023-09-19T07:13:15;6.13;;;1.83;;
17844;SDS011;9047;53.486;10.218;2023-09-19T07:15:48;8.10;;;2.20;;
17844;SDS011;9047;53.486;10.218;2023-09-19T07:18:23;7.82;;;2.10;;
17844;SDS011;9047;53.486;10.218;2023-09-19T07:20:56;9.68;;;2.00;;
17844;SDS011;9047;53.486;10.218;2023-09-19T07:23:30;10.63;;;2.22;;
17844;SDS011;9047;53.486;10.218;2023-09-19T07:26:00;7.32;;;2.28;;
17844;SDS011;9047;53.486;10.218;2023-09-19T07:28:33;9.40;;;2.30;;
17844;SDS011;9047;53.486;10.218;2023-09-19T07:31:05;10.18;;;2.33;;
17844;SDS011;9047;53.486;10.218;2023-09-19T07:33:35;10.73;;;2.45;;
17844;SDS011;9047;53.486;10.218;2023-09-19T07:36:02;8.48;;;2.30;;
17844;SDS011;9047;53.486;10.218;2023-09-19T07:38:29;8.48;;;2.55;;
17844;SDS011;9047;53.486;10.218;2023-09-19T07:41:00;9.15;;;3.05;;
17844;SDS011;9047;53.486;10.218;2023-09-19T07:43:28;9.77;;;2.40;;
17844;SDS011;9047;53.486;10.218;2023-09-19T07:46:02;7.50;;;2.22;;
17844;SDS011;9047;53.486;10.218;2023-09-19T07:48:34;11.50;;;2.97;;
17844;SDS011;9047;53.486;10.218;2023-09-19T07:51:03;9.27;;;2.55;;
17844;SDS011;9047;53.486;10.218;2023-09-19T07:53:32;8.40;;;2.50;;
17844;SDS011;9047;53.486;10.218;2023-09-19T07:56:04;10.50;;;2.60;;
17844;SDS011;9047;53.486;10.218;2023-09-19T07:58:32;8.52;;;2.40;;
17844;SDS011;9047;53.486;10.218;2023-09-19T08:01:06;11.45;;;2.95;;
17844;SDS011;9047;53.486;10.218;2023-09-19T08:03:39;9.13;;;2.47;;
17844;SDS011;9047;53.486;10.218;2023-09-19T08:06:10;9.50;;;2.80;;
17844;SDS011;9047;53.486;10.218;2023-09-19T08:08:40;8.90;;;2.20;;
17844;SDS011;9047;53.486;10.218;2023-09-19T08:11:10;13.50;;;2.65;;
17844;SDS011;9047;53.486;10.218;2023-09-19T08:13:46;10.77;;;2.42;;
17844;SDS011;9047;53.486;10.218;2023-09-19T08:16:17;8.63;;;2.47;;
17844;SDS011;9047;53.486;10.218;2023-09-19T08:18:46;9.85;;;2.35;;
17844;SDS011;9047;53.486;10.218;2023-09-19T08:21:25;15.98;;;2.50;;
17844;SDS011;9047;53.486;10.218;2023-09-19T08:23:54;10.60;;;2.45;;
17844;SDS011;9047;53.486;10.218;2023-09-19T08:26:22;9.52;;;2.53;;
17844;SDS011;9047;53.486;10.218;2023-09-19T08:28:51;12.65;;;2.88;;
17844;SDS011;9047;53.486;10.218;2023-09-19T08:31:25;11.30;;;2.53;;
17844;SDS011;9047;53.486;10.218;2023-09-19T08:33:52;8.50;;;2.40;;
17844;SDS011;9047;53.486;10.218;2023-09-19T08:36:24;9.57;;;2.70;;
17844;SDS011;9047;53.486;10.218;2023-09-19T08:38:51;9.75;;;2.30;;
17844;SDS011;9047;53.486;10.218;2023-09-19T08:41:24;6.35;;;2.20;;
17844;SDS011;9047;53.486;10.218;2023-09-19T08:43:52;11.45;;;2.35;;
17844;SDS011;9047;53.486;10.218;2023-09-19T08:46:20;14.93;;;2.53;;
17844;SDS011;9047;53.486;10.218;2023-09-19T08:48:54;10.95;;;2.25;;
17844;SDS011;9047;53.486;10.218;2023-09-19T08:51:30;7.30;;;2.00;;
17844;SDS011;9047;53.486;10.218;2023-09-19T08:54:06;11.15;;;2.60;;
17844;SDS011;9047;53.486;10.218;2023-09-19T08:56:35;9.13;;;2.40;;
17844;SDS011;9047;53.486;10.218;2023-09-19T08:59:04;7.15;;;2.05;;
17844;SDS011;9047;53.486;10.218;2023-09-19T09:01:35;8.98;;;2.45;;
17844;SDS011;9047;53.486;10.218;2023-09-19T09:04:02;9.57;;;2.33;;
17844;SDS011;9047;53.486;10.218;2023-09-19T09:06:35;11.93;;;2.17;;
17844;SDS011;9047;53.486;10.218;2023-09-19T09:09:05;9.38;;;2.28;;
17844;SDS011;9047;53.486;10.218;2023-09-19T09:11:34;8.98;;;2.60;;
17844;SDS011;9047;53.486;10.218;2023-09-19T09:14:04;11.77;;;2.33;;
17844;SDS011;9047;53.486;10.218;2023-09-19T09:16:35;9.77;;;2.28;;
17844;SDS011;9047;53.486;10.218;2023-09-19T09:19:02;10.18;;;2.15;;
17844;SDS011;9047;53.486;10.218;2023-09-19T09:21:31;11.93;;;2.42;;
17844;SDS011;9047;53.486;10.218;2023-09-19T09:26:57;12.20;;;2.20;;
17844;SDS011;9047;53.486;10.218;2023-09-19T09:32:32;10.65;;;2.20;;
17844;SDS011;9047;53.486;10.218;2023-09-19T09:35:07;13.05;;;2.60;;
17844;SDS011;9047;53.486;10.218;2023-09-19T09:37:37;11.07;;;1.92;;
17844;SDS011;9047;53.486;10.218;2023-09-19T09:40:06;8.60;;;2.28;;
17844;SDS011;9047;53.486;10.218;2023-09-19T09:42:48;7.07;;;2.10;;
17844;SDS011;9047;53.486;10.218;2023-09-19T09:45:25;10.68;;;2.13;;
17844;SDS011;9047;53.486;10.218;2023-09-19T09:48:06;11.20;;;2.53;;
17844;SDS011;9047;53.486;10.218;2023-09-19T09:50:46;10.15;;;2.03;;
17844;SDS011;9047;53.486;10.218;2023-09-19T09:53:21;6.78;;;2.28;;
17844;SDS011;9047;53.486;10.218;2023-09-19T09:55:58;9.07;;;2.50;;
17844;SDS011;9047;53.486;10.218;2023-09-19T09:58:34;7.57;;;2.00;;
17844;SDS011;9047;53.486;10.218;2023-09-19T10:01:05;6.32;;;2.00;;
17844;SDS011;9047;53.486;10.218;2023-09-19T10:03:38;8.60;;;1.80;;
17844;SDS011;9047;53.486;10.218;2023-09-19T10:06:11;8.25;;;1.90;;
17844;SDS011;9047;53.486;10.218;2023-09-19T10:09:00;8.27;;;2.10;;
17844;SDS011;9047;53.486;10.218;2023-09-19T10:11:39;7.53;;;1.85;;
17844;SDS011;9047;53.486;10.218;2023-09-19T10:14:09;6.45;;;2.08;;
17844;SDS011;9047;53.486;10.218;2023-09-19T10:16:45;6.22;;;1.70;;
17844;SDS011;9047;53.486;10.218;2023-09-19T10:19:17;7.22;;;1.90;;
17844;SDS011;9047;53.486;10.218;2023-09-19T10:21:58;7.97;;;2.15;;
17844;SDS011;9047;53.486;10.218;2023-09-19T10:24:30;9.60;;;1.80;;
17844;SDS011;9047;53.486;10.218;2023-09-19T10:27:03;8.20;;;1.85;;
17844;SDS011;9047;53.486;10.218;2023-09-19T10:29:34;7.57;;;1.80;;
17844;SDS011;9047;53.486;10.218;2023-09-19T10:32:13;7.30;;;1.80;;
17844;SDS011;9047;53.486;10.218;2023-09-19T10:34:51;5.90;;;1.88;;
17844;SDS011;9047;53.486;10.218;2023-09-19T10:37:20;7.40;;;2.00;;
17844;SDS011;9047;53.486;10.218;2023-09-19T10:39:51;8.77;;;1.83;;
17844;SDS011;9047;53.486;10.218;2023-09-19T10:42:20;7.07;;;1.63;;
17844;SDS011;9047;53.486;10.218;2023-09-19T10:44:51;9.18;;;1.95;;
17844;SDS011;9047;53.486;10.218;2023-09-19T10:47:23;7.03;;;1.70;;
17844;SDS011;9047;53.486;10.218;2023-09-19T10:49:57;8.77;;;1.83;;
17844;SDS011;9047;53.486;10.218;2023-09-19T10:52:24;8.68;;;2.05;;
17844;SDS011;9047;53.486;10.218;2023-09-19T10:54:59;7.70;;;1.98;;
17844;SDS011;9047;53.486;10.218;2023-09-19T10:57:29;7.20;;;1.70;;
17844;SDS011;9047;53.486;10.218;2023-09-19T11:00:02;4.32;;;1.58;;
17844;SDS011;9047;53.486;10.218;2023-09-19T11:08:54;7.82;;;1.88;;
17844;SDS011;9047;53.486;10.218;2023-09-19T11:11:39;8.68;;;2.00;;
17844;SDS011;9047;53.486;10.218;2023-09-19T11:14:14;9.52;;;2.00;;
17844;SDS011;9047;53.486;10.218;2023-09-19T11:20:20;6.82;;;2.20;;
17844;SDS011;9047;53.486;10.218;2023-09-19T11:26:04;7.78;;;2.03;;
17844;SDS011;9047;53.486;10.218;2023-09-19T11:28:55;7.88;;;1.83;;
17844;SDS011;9047;53.486;10.218;2023-09-19T11:31:51;8.35;;;1.90;;
17844;SDS011;9047;53.486;10.218;2023-09-19T11:40:36;7.28;;;1.95;;
17844;SDS011;9047;53.486;10.218;2023-09-19T11:46:10;8.65;;;2.13;;
17844;SDS011;9047;53.486;10.218;2023-09-19T11:48:43;7.13;;;1.83;;
17844;SDS011;9047;53.486;10.218;2023-09-19T11:51:12;9.55;;;1.90;;
17844;SDS011;9047;53.486;10.218;2023-09-19T11:53:46;7.30;;;1.90;;
17844;SDS011;9047;53.486;10.218;2023-09-19T11:56:21;7.63;;;2.10;;
17844;SDS011;9047;53.486;10.218;2023-09-19T11:58:54;7.90;;;1.88;;
17844;SDS011;9047;53.486;10.218;2023-09-19T12:01:25;9.18;;;2.20;;
17844;SDS011;9047;53.486;10.218;2023-09-19T12:03:57;7.22;;;1.88;;
17844;SDS011;9047;53.486;10.218;2023-09-19T12:06:25;5.30;;;1.95;;
17844;SDS011;9047;53.486;10.218;2023-09-19T12:08:54;8.43;;;2.50;;
17844;SDS011;9047;53.486;10.218;2023-09-19T12:11:28;7.15;;;2.45;;
17844;SDS011;9047;53.486;10.218;2023-09-19T12:14:06;9.48;;;2.03;;
17844;SDS011;9047;53.486;10.218;2023-09-19T12:16:35;4.13;;;1.80;;
17844;SDS011;9047;53.486;10.218;2023-09-19T12:21:55;10.43;;;1.75;;
17844;SDS011;9047;53.486;10.218;2023-09-19T12:24:24;11.30;;;2.10;;
17844;SDS011;9047;53.486;10.218;2023-09-19T12:26:55;7.75;;;2.00;;
17844;SDS011;9047;53.486;10.218;2023-09-19T12:29:32;6.97;;;2.10;;
17844;SDS011;9047;53.486;10.218;2023-09-19T12:32:09;5.85;;;2.00;;
17844;SDS011;9047;53.486;10.218;2023-09-19T12:34:36;7.43;;;2.08;;
17844;SDS011;9047;53.486;10.218;2023-09-19T12:37:07;5.97;;;1.80;;
17844;SDS011;9047;53.486;10.218;2023-09-19T12:39:41;8.73;;;1.90;;
17844;SDS011;9047;53.486;10.218;2023-09-19T12:45:59;6.88;;;2.35;;
17844;SDS011;9047;53.486;10.218;2023-09-19T12:48:28;8.18;;;2.00;;
17844;SDS011;9047;53.486;10.218;2023-09-19T12:51:03;7.97;;;2.40;;
17844;SDS011;9047;53.486;10.218;2023-09-19T12:53:33;8.57;;;2.10;;
17844;SDS011;9047;53.486;10.218;2023-09-19T12:56:05;7.43;;;2.13;;
17844;SDS011;9047;53.486;10.218;2023-09-19T12:58:36;8.82;;;2.22;;
17844;SDS011;9047;53.486;10.218;2023-09-19T13:01:18;7.32;;;2.30;;
17844;SDS011;9047;53.486;10.218;2023-09-19T13:03:45;11.98;;;2.30;;
17844;SDS011;9047;53.486;10.218;2023-09-19T13:06:12;7.25;;;2.00;;
17844;SDS011;9047;53.486;10.218;2023-09-19T13:08:42;8.35;;;2.10;;
17844;SDS011;9047;53.486;10.218;2023-09-19T13:11:14;8.15;;;1.90;;
17844;SDS011;9047;53.486;10.218;2023-09-19T13:13:44;7.55;;;2.25;;
17844;SDS011;9047;53.486;10.218;2023-09-19T13:16:15;8.20;;;1.92;;
17844;SDS011;9047;53.486;10.218;2023-09-19T13:18:47;10.93;;;2.78;;
17844;SDS011;9047;53.486;10.218;2023-09-19T13:21:27;9.43;;;2.25;;
17844;SDS011;9047;53.486;10.218;2023-09-19T13:24:18;10.40;;;2.53;;
17844;SDS011;9047;53.486;10.218;2023-09-19T13:26:46;7.30;;;2.00;;
17844;SDS011;9047;53.486;10.218;2023-09-19T13:29:12;8.73;;;1.92;;
17844;SDS011;9047;53.486;10.218;2023-09-19T13:31:47;8.63;;;2.53;;
17844;SDS011;9047;53.486;10.218;2023-09-19T13:34:18;12.45;;;2.92;;
17844;SDS011;9047;53.486;10.218;2023-09-19T13:36:46;6.95;;;1.98;;
17844;SDS011;9047;53.486;10.218;2023-09-19T13:39:23;10.80;;;2.30;;
17844;SDS011;9047;53.486;10.218;2023-09-19T13:41:54;6.75;;;2.08;;
17844;SDS011;9047;53.486;10.218;2023-09-19T13:44:40;8.88;;;2.28;;
17844;SDS011;9047;53.486;10.218;2023-09-19T13:47:17;10.25;;;1.90;;
17844;SDS011;9047;53.486;10.218;2023-09-19T13:49:49;8.73;;;2.30;;
17844;SDS011;9047;53.486;10.218;2023-09-19T13:52:18;9.35;;;2.13;;
17844;SDS011;9047;53.486;10.218;2023-09-19T13:54:46;10.18;;;2.50;;
17844;SDS011;9047;53.486;10.218;2023-09-19T13:57:14;6.97;;;1.90;;
17844;SDS011;9047;53.486;10.218;2023-09-19T13:59:42;7.13;;;1.85;;
17844;SDS011;9047;53.486;10.218;2023-09-19T14:02:16;9.52;;;2.13;;
17844;SDS011;9047;53.486;10.218;2023-09-19T14:04:43;7.22;;;2.00;;
17844;SDS011;9047;53.486;10.218;2023-09-19T14:07:10;6.78;;;2.35;;
17844;SDS011;9047;53.486;10.218;2023-09-19T14:09:38;7.88;;;2.22;;
17844;SDS011;9047;53.486;10.218;2023-09-19T14:12:06;8.00;;;2.50;;
17844;SDS011;9047;53.486;10.218;2023-09-19T14:14:35;6.22;;;1.80;;
17844;SDS011;9047;53.486;10.218;2023-09-19T14:17:02;5.70;;;1.85;;
17844;SDS011;9047;53.486;10.218;2023-09-19T14:19:35;7.25;;;2.78;;
17844;SDS011;9047;53.486;10.218;2023-09-19T14:22:07;7.30;;;2.22;;
17844;SDS011;9047;53.486;10.218;2023-09-19T14:24:36;7.30;;;2.10;;
17844;SDS011;9047;53.486;10.218;2023-09-19T14:27:06;8.60;;;1.92;;
17844;SDS011;9047;53.486;10.218;2023-09-19T14:29:34;7.90;;;2.25;;
17844;SDS011;9047;53.486;10.218;2023-09-19T14:32:01;9.85;;;2.20;;
17844;SDS011;9047;53.486;10.218;2023-09-19T14:34:35;10.27;;;2.08;;
17844;SDS011;9047;53.486;10.218;2023-09-19T14:37:07;8.57;;;1.90;;
17844;SDS011;9047;53.486;10.218;2023-09-19T14:39:36;6.40;;;2.00;;
17844;SDS011;9047;53.486;10.218;2023-09-19T14:42:04;6.55;;;1.98;;
17844;SDS011;9047;53.486;10.218;2023-09-19T14:44:32;10.52;;;2.15;;
17844;SDS011;9047;53.486;10.218;2023-09-19T14:47:00;6.70;;;2.10;;
17844;SDS011;9047;53.486;10.218;2023-09-19T14:49:35;5.80;;;2.10;;
17844;SDS011;9047;53.486;10.218;2023-09-19T14:52:06;9.93;;;2.22;;
17844;SDS011;9047;53.486;10.218;2023-09-19T14:54:35;8.77;;;2.20;;
17844;SDS011;9047;53.486;10.218;2023-09-19T14:57:06;8.82;;;2.08;;
17844;SDS011;9047;53.486;10.218;2023-09-19T14:59:35;9.75;;;2.50;;
17844;SDS011;9047;53.486;10.218;2023-09-19T15:02:09;9.98;;;2.40;;
17844;SDS011;9047;53.486;10.218;2023-09-19T15:04:46;10.32;;;2.70;;
17844;SDS011;9047;53.486;10.218;2023-09-19T15:07:13;7.82;;;2.15;;
17844;SDS011;9047;53.486;10.218;2023-09-19T15:09:42;9.45;;;2.72;;
17844;SDS011;9047;53.486;10.218;2023-09-19T15:12:13;7.35;;;2.15;;
17844;SDS011;9047;53.486;10.218;2023-09-19T15:14:57;10.20;;;2.60;;
17844;SDS011;9047;53.486;10.218;2023-09-19T15:17:40;9.63;;;2.90;;
17844;SDS011;9047;53.486;10.218;2023-09-19T15:20:11;9.90;;;2.70;;
17844;SDS011;9047;53.486;10.218;2023-09-19T15:22:42;8.35;;;2.35;;
17844;SDS011;9047;53.486;10.218;2023-09-19T15:25:13;7.35;;;2.17;;
17844;SDS011;9047;53.486;10.218;2023-09-19T15:27:44;7.07;;;2.17;;
17844;SDS011;9047;53.486;10.218;2023-09-19T15:30:11;9.88;;;2.50;;
17844;SDS011;9047;53.486;10.218;2023-09-19T15:32:40;9.43;;;2.75;;
17844;SDS011;9047;53.486;10.218;2023-09-19T15:35:10;7.55;;;2.47;;
17844;SDS011;9047;53.486;10.218;2023-09-19T15:37:43;9.30;;;2.80;;
17844;SDS011;9047;53.486;10.218;2023-09-19T15:40:12;8.65;;;2.50;;
17844;SDS011;9047;53.486;10.218;2023-09-19T15:42:40;8.05;;;2.47;;
17844;SDS011;9047;53.486;10.218;2023-09-19T15:45:08;9.63;;;2.30;;
17844;SDS011;9047;53.486;10.218;2023-09-19T15:47:36;8.77;;;2.85;;
17844;SDS011;9047;53.486;10.218;2023-09-19T15:50:04;15.15;;;2.67;;
17844;SDS011;9047;53.486;10.218;2023-09-19T15:52:34;7.88;;;2.53;;